Traben Trarbach, Germany

9:12 AM CEST on September 01, 2015 (GMT +0200)
Mittelmosel | | Change Station
CLOSE
Current Station
Personal Weather Station
Location: Traben-Trarbach, RHEINLAND-PFALZ
Elevation: 367 ft
Nearby Weather Stations

Elev 367 ft 49.97 °N, 7.11 °E | Updated 28 seconds ago

Overcast
Overcast
65.6 °F
Feels Like 65.6 °F
N
0.0
Wind Variable Wind from ENE
Gusts 0.0 mph

Today
High -- | Low -- °F
--% Chance of Precip.
Yesterday
High -- | Low -- °F
Precip. -- in
6:45 AM 8:16 PM
Waning Gibbous, 91% visible
Pressure 29.80 in
Visibility 3.7 miles
Clouds Few 200 ft
Mostly Cloudy 600 ft
Overcast 1300 ft
Dew Point 48 °F
Humidity 53%
Rainfall 0.05 in
Snow Depth Not available.
UV 1 out of 12
Pollen Not available.
Air Quality Not available.
Flu Activity Not available.
SPECI ETSB 010709Z 35007KT 6000 RA FEW002 BKN006 OVC013 15/15 Q1009 YLO GRN TEMPO YLO
Pressure 29.80 in
Visibility 3.7 miles
Clouds Few 200 ft
Mostly Cloudy 600 ft
Overcast 1300 ft
Dew Point 48 °F
Humidity 53%
Rainfall 0.05 in
Snow Depth Not available.
UV 1 out of 12
Pollen Not available.
Air Quality Not available.
Flu Activity Not available.
SPECI ETSB 010709Z 35007KT 6000 RA FEW002 BKN006 OVC013 15/15 Q1009 YLO GRN TEMPO YLO

10-Day Weather Forecast

×

Almanac

Astronomy

Sep. 01, 2015 Rise Set
Actual Time
Civil Twilight
Nautical Twilight
Astronomical Twilight
Moon
Length of Visible Light
Length of Day
Tomorrow will be .
, % of the Moon is Illuminated

Today's Extremes

Country Highs Country Lows

Community

WunderPhotos

Upload Photos

1,851,488 photos uploaded!

WunderBlogs® & News

Nearby

Air Quality

  Air Quality AQ Index Pollutant
Not available.

Snow Depth

Station Depth Elevation

Earthquake Activity

City Distance Mag. Time & Date
Minimum magnitude displayed is 2.5.

Coastal Water Temperatures

Place Temperature

Stations

Nearby Weather Stations

Station Location Temp. Windchill Dew Point Humidity Wind Precip. Elev Updated Type